Time;durP1;ratioP1;P1;durP2;ratioP2;P2;SDS_P1;SDS_P2;PMS_P1;PMS_P2;Temp;Humidity;BMP_temperature;BMP_pressure;BME280_temperature;BME280_humidity;BME280_pressure;Samples;Min_cycle;Max_cycle;Signal;HPM_P1;HPM_P2
2022/08/25 00:00:05;;;;;;;17.60;10.10;;;;;;;;;;5054574;28;20024;-77
2022/08/25 00:02:30;;;;;;;13.35;10.18;;;;;;;;;;5054534;28;20116;-76
2022/08/25 00:04:56;;;;;;;12.95;10.13;;;;;;;;;;5054539;28;20083;-76
2022/08/25 00:07:21;;;;;;;16.17;10.07;;;;;;;;;;5054436;28;20033;-76
2022/08/25 00:09:46;;;;;;;21.13;10.10;;;;;;;;;;5054276;28;20269;-76
2022/08/25 00:12:11;;;;;;;17.90;10.75;;;;;;;;;;5053002;28;20266;-76
2022/08/25 00:14:37;;;;;;;18.47;10.60;;;;;;;;;;5054366;28;20431;-75
2022/08/25 00:17:03;;;;;;;17.75;10.95;;;;;;;;;;5052875;28;20411;-76
2022/08/25 00:19:33;;;;;;;15.23;10.15;;;;;;;;;;5054090;28;20033;-76
2022/08/25 00:21:59;;;;;;;13.27;9.73;;;;;;;;;;5053980;28;20162;-76
2022/08/25 00:24:25;;;;;;;16.98;10.38;;;;;;;;;;5054000;28;20025;-76
2022/08/25 00:26:53;;;;;;;17.50;10.30;;;;;;;;;;5052623;28;20028;-75
2022/08/25 00:29:20;;;;;;;14.68;10.02;;;;;;;;;;5053855;28;20021;-75
2022/08/25 00:31:46;;;;;;;18.85;10.30;;;;;;;;;;5053952;28;20025;-75
2022/08/25 00:34:15;;;;;;;25.10;10.18;;;;;;;;;;5052451;28;20104;-75
2022/08/25 00:36:40;;;;;;;16.30;10.60;;;;;;;;;;5053773;28;20052;-75
2022/08/25 00:39:07;;;;;;;17.52;10.23;;;;;;;;;;5053256;28;20061;-75
2022/08/25 00:41:34;;;;;;;17.35;10.70;;;;;;;;;;5052427;28;20075;-74
2022/08/25 00:44:03;;;;;;;20.67;11.00;;;;;;;;;;5054143;28;20021;-76
2022/08/25 00:46:41;;;;;;;15.18;10.50;;;;;;;;;;5053511;28;20371;-76
2022/08/25 00:49:40;;;;;;;18.35;10.38;;;;;;;;;;5052480;28;20437;-76
2022/08/25 00:52:12;;;;;;;20.05;9.85;;;;;;;;;;5053847;28;20509;-76
2022/08/25 00:54:53;;;;;;;20.85;11.15;;;;;;;;;;5052081;28;20061;-75
2022/08/25 00:57:23;;;;;;;15.25;10.05;;;;;;;;;;5053429;28;20021;-74
2022/08/25 00:59:48;;;;;;;17.52;10.45;;;;;;;;;;5053809;28;20040;-76
2022/08/25 01:02:14;;;;;;;21.02;9.63;;;;;;;;;;5053327;28;20021;-75
2022/08/25 01:04:41;;;;;;;17.75;10.05;;;;;;;;;;5051409;28;20036;-75
2022/08/25 01:07:07;;;;;;;22.70;9.85;;;;;;;;;;5053308;28;20021;-76
2022/08/25 01:09:33;;;;;;;17.05;10.18;;;;;;;;;;5053186;28;20032;-75
2022/08/25 01:11:59;;;;;;;14.45;10.30;;;;;;;;;;5051934;28;20070;-75
2022/08/25 01:14:26;;;;;;;16.23;10.50;;;;;;;;;;5051885;28;20029;-75
2022/08/25 01:16:52;;;;;;;15.95;10.07;;;;;;;;;;5053158;28;20029;-75
2022/08/25 01:19:18;;;;;;;16.38;11.05;;;;;;;;;;5053043;28;20025;-76
2022/08/25 01:21:47;;;;;;;15.48;11.57;;;;;;;;;;5053105;28;20035;-75
2022/08/25 01:24:22;;;;;;;14.82;10.15;;;;;;;;;;5053132;28;20072;-75
2022/08/25 01:26:47;;;;;;;15.05;10.35;;;;;;;;;;5052962;28;20107;-75
2022/08/25 01:29:24;;;;;;;19.43;10.53;;;;;;;;;;5051725;28;20608;-75
2022/08/25 01:31:54;;;;;;;15.07;10.43;;;;;;;;;;5051686;28;20296;-75
2022/08/25 01:34:20;;;;;;;18.38;10.77;;;;;;;;;;5053113;28;20128;-75
2022/08/25 01:36:46;;;;;;;19.02;10.38;;;;;;;;;;5052931;28;20039;-75
2022/08/25 01:39:12;;;;;;;18.45;10.55;;;;;;;;;;5053090;28;20025;-75
2022/08/25 01:41:49;;;;;;;17.60;10.77;;;;;;;;;;5053099;28;20382;-75
2022/08/25 01:44:15;;;;;;;14.23;10.80;;;;;;;;;;5051571;28;20027;-75
2022/08/25 01:46:41;;;;;;;17.40;11.07;;;;;;;;;;5052807;28;20106;-75
2022/08/25 01:49:07;;;;;;;17.80;10.70;;;;;;;;;;5053022;28;20083;-76
2022/08/25 01:51:38;;;;;;;17.98;10.88;;;;;;;;;;5051522;28;20039;-75
2022/08/25 01:54:04;;;;;;;15.80;11.00;;;;;;;;;;5051548;28;20025;-76
2022/08/25 01:56:30;;;;;;;14.85;9.98;;;;;;;;;;5052730;28;20029;-76
2022/08/25 01:58:56;;;;;;;13.77;10.40;;;;;;;;;;5052742;28;20517;-76
2022/08/25 02:01:23;;;;;;;17.20;10.77;;;;;;;;;;5051790;28;20053;-76
2022/08/25 02:03:51;;;;;;;17.13;9.95;;;;;;;;;;5052684;28;20037;-75
2022/08/25 02:06:21;;;;;;;15.57;10.38;;;;;;;;;;5051200;28;20037;-76
2022/08/25 02:08:53;;;;;;;13.77;10.15;;;;;;;;;;5052848;28;20108;-76
2022/08/25 02:11:20;;;;;;;19.20;11.20;;;;;;;;;;5052921;28;20052;-75
2022/08/25 02:13:45;;;;;;;24.15;11.40;;;;;;;;;;5051310;28;20036;-75
2022/08/25 02:16:16;;;;;;;18.00;10.50;;;;;;;;;;5053034;28;20025;-75
2022/08/25 02:18:42;;;;;;;15.98;10.60;;;;;;;;;;5057072;28;20250;-75
2022/08/25 02:21:08;;;;;;;14.82;10.57;;;;;;;;;;5056587;28;20039;-75
2022/08/25 02:23:33;;;;;;;16.23;10.82;;;;;;;;;;5055074;28;20028;-75
2022/08/25 02:25:58;;;;;;;19.27;10.63;;;;;;;;;;5056250;28;20033;-75
2022/08/25 02:28:24;;;;;;;13.57;10.50;;;;;;;;;;5056669;28;20290;-75
2022/08/25 02:30:51;;;;;;;17.98;10.73;;;;;;;;;;5056376;28;20794;-75
2022/08/25 02:33:16;;;;;;;17.88;10.45;;;;;;;;;;5056124;28;20036;-76
2022/08/25 02:35:42;;;;;;;14.35;10.68;;;;;;;;;;5055989;28;20024;-76
2022/08/25 02:38:07;;;;;;;15.53;10.70;;;;;;;;;;5056005;28;20045;-76
2022/08/25 02:40:33;;;;;;;16.37;10.20;;;;;;;;;;5055980;28;20273;-76
2022/08/25 02:42:58;;;;;;;17.50;10.15;;;;;;;;;;5055969;28;20731;-76
2022/08/25 02:45:23;;;;;;;16.90;10.50;;;;;;;;;;5055891;28;20063;-76
2022/08/25 02:47:49;;;;;;;19.05;11.10;;;;;;;;;;5056280;28;20277;-76
2022/08/25 02:50:14;;;;;;;20.48;10.80;;;;;;;;;;5055819;28;20025;-76
2022/08/25 02:52:40;;;;;;;20.88;10.88;;;;;;;;;;5055793;28;20029;-75
2022/08/25 02:55:09;;;;;;;17.20;10.60;;;;;;;;;;5055636;28;20104;-75
2022/08/25 02:57:34;;;;;;;16.77;10.55;;;;;;;;;;5055592;28;20045;-75
2022/08/25 03:00:00;;;;;;;15.32;10.40;;;;;;;;;;5055640;28;20495;-75
2022/08/25 03:02:26;;;;;;;18.25;10.98;;;;;;;;;;5055484;28;20048;-75
2022/08/25 03:04:52;;;;;;;16.80;10.82;;;;;;;;;;5054067;28;20032;-75
2022/08/25 03:07:18;;;;;;;19.67;11.00;;;;;;;;;;5055457;28;20028;-75
2022/08/25 03:09:44;;;;;;;16.38;11.05;;;;;;;;;;5054146;28;20060;-75
2022/08/25 03:12:11;;;;;;;18.27;10.70;;;;;;;;;;5055356;28;20052;-76
2022/08/25 03:14:37;;;;;;;13.52;10.15;;;;;;;;;;5055373;28;20040;-75
2022/08/25 03:17:03;;;;;;;15.63;10.32;;;;;;;;;;5055332;28;20394;-75
2022/08/25 03:19:29;;;;;;;17.08;10.65;;;;;;;;;;5055307;28;20025;-75
2022/08/25 03:21:55;;;;;;;17.15;10.98;;;;;;;;;;5055192;28;20486;-75
2022/08/25 03:24:22;;;;;;;17.63;10.90;;;;;;;;;;5055034;28;20095;-75
2022/08/25 03:26:54;;;;;;;16.38;10.85;;;;;;;;;;5055025;28;20027;-75
2022/08/25 03:29:22;;;;;;;17.13;11.65;;;;;;;;;;5054534;28;20025;-75
2022/08/25 03:31:48;;;;;;;16.80;11.32;;;;;;;;;;5053687;28;20028;-75
2022/08/25 03:34:17;;;;;;;20.42;10.93;;;;;;;;;;5055110;28;20029;-75
2022/08/25 03:36:45;;;;;;;21.05;11.23;;;;;;;;;;5055222;28;20479;-75
2022/08/25 03:39:10;;;;;;;18.75;11.32;;;;;;;;;;5054894;28;20025;-75
2022/08/25 03:41:36;;;;;;;18.77;11.75;;;;;;;;;;5054755;28;20051;-74
2022/08/25 03:44:03;;;;;;;16.63;11.85;;;;;;;;;;5054737;28;20028;-76
2022/08/25 03:46:35;;;;;;;16.45;11.35;;;;;;;;;;5054733;28;20128;-75
2022/08/25 03:49:03;;;;;;;17.98;11.77;;;;;;;;;;5053881;28;20398;-75
2022/08/25 03:51:32;;;;;;;18.77;11.30;;;;;;;;;;5054678;28;20021;-76
2022/08/25 03:53:58;;;;;;;18.88;11.68;;;;;;;;;;5053341;28;20103;-76
2022/08/25 03:56:24;;;;;;;21.40;12.05;;;;;;;;;;5054902;28;20112;-75
2022/08/25 03:58:50;;;;;;;15.55;10.82;;;;;;;;;;5054732;28;20053;-76
2022/08/25 04:01:15;;;;;;;16.63;11.52;;;;;;;;;;5054705;28;20028;-77
2022/08/25 04:03:41;;;;;;;17.67;11.23;;;;;;;;;;5053132;28;20078;-76
2022/08/25 04:06:06;;;;;;;18.45;11.63;;;;;;;;;;5054528;28;20033;-74
2022/08/25 04:08:32;;;;;;;18.05;11.75;;;;;;;;;;5054329;28;20074;-76
2022/08/25 04:10:57;;;;;;;18.65;11.63;;;;;;;;;;5054624;28;20057;-76
2022/08/25 04:13:23;;;;;;;17.98;11.40;;;;;;;;;;5054567;28;20071;-76
2022/08/25 04:15:48;;;;;;;17.35;11.27;;;;;;;;;;5054499;28;20079;-75
2022/08/25 04:18:14;;;;;;;19.75;10.63;;;;;;;;;;5054271;28;20025;-76
2022/08/25 04:20:41;;;;;;;15.95;11.10;;;;;;;;;;5054580;28;20028;-77
2022/08/25 04:23:07;;;;;;;15.05;10.75;;;;;;;;;;5054287;28;20036;-75
2022/08/25 04:25:33;;;;;;;14.63;10.50;;;;;;;;;;5054184;28;20421;-75
2022/08/25 04:27:58;;;;;;;17.48;10.63;;;;;;;;;;5054104;28;20029;-75
2022/08/25 04:30:23;;;;;;;11.90;10.20;;;;;;;;;;5053872;28;20052;-76
2022/08/25 04:32:48;;;;;;;15.77;10.83;;;;;;;;;;5054123;28;20470;-75
2022/08/25 04:35:14;;;;;;;13.07;9.73;;;;;;;;;;5053654;28;20681;-76
2022/08/25 04:37:40;;;;;;;16.25;10.32;;;;;;;;;;5054033;28;20253;-75
2022/08/25 04:40:06;;;;;;;16.85;10.20;;;;;;;;;;5053569;28;20181;-76
2022/08/25 04:42:31;;;;;;;16.98;10.63;;;;;;;;;;5053615;28;20031;-75
2022/08/25 04:44:57;;;;;;;16.52;10.18;;;;;;;;;;5053487;28;20025;-76
2022/08/25 04:47:22;;;;;;;18.27;10.50;;;;;;;;;;5052282;28;20032;-75
2022/08/25 04:49:48;;;;;;;18.63;10.90;;;;;;;;;;5053550;28;20070;-75
2022/08/25 04:52:13;;;;;;;15.23;10.88;;;;;;;;;;5053470;28;20103;-75
2022/08/25 04:54:39;;;;;;;17.17;10.50;;;;;;;;;;5053617;28;20021;-75
2022/08/25 04:57:04;;;;;;;18.10;10.23;;;;;;;;;;5052141;28;20029;-75
2022/08/25 04:59:29;;;;;;;13.27;10.07;;;;;;;;;;5053336;28;20798;-76
2022/08/25 05:01:56;;;;;;;14.60;9.88;;;;;;;;;;5053367;28;20669;-74
2022/08/25 05:04:22;;;;;;;18.80;10.35;;;;;;;;;;5051978;28;20036;-76
2022/08/25 05:06:47;;;;;;;15.00;9.80;;;;;;;;;;5052003;28;20032;-75
2022/08/25 05:09:12;;;;;;;15.57;9.55;;;;;;;;;;5053401;28;20045;-75
2022/08/25 05:11:39;;;;;;;20.25;9.55;;;;;;;;;;5053338;28;20063;-75
2022/08/25 05:14:10;;;;;;;17.83;10.27;;;;;;;;;;5053283;28;20482;-76
2022/08/25 05:16:35;;;;;;;14.13;10.70;;;;;;;;;;5053133;28;20021;-75
2022/08/25 05:19:00;;;;;;;16.10;10.30;;;;;;;;;;5051783;28;20075;-76
2022/08/25 05:21:27;;;;;;;13.47;10.00;;;;;;;;;;5053562;28;20471;-75
2022/08/25 05:23:58;;;;;;;19.20;10.18;;;;;;;;;;5053156;28;20258;-75
2022/08/25 05:26:26;;;;;;;18.08;10.70;;;;;;;;;;5053015;28;20032;-75
2022/08/25 05:28:53;;;;;;;15.27;9.98;;;;;;;;;;5053126;28;20094;-75
2022/08/25 05:31:19;;;;;;;13.52;9.43;;;;;;;;;;5052784;28;20116;-75
2022/08/25 05:33:45;;;;;;;14.95;9.63;;;;;;;;;;5052919;28;20455;-75
2022/08/25 05:36:12;;;;;;;13.50;9.60;;;;;;;;;;5051957;28;20021;-75
2022/08/25 05:38:38;;;;;;;13.77;9.27;;;;;;;;;;5052870;28;20033;-75
2022/08/25 05:41:09;;;;;;;15.38;9.50;;;;;;;;;;5051617;28;20025;-75
2022/08/25 05:43:36;;;;;;;14.77;8.75;;;;;;;;;;5053147;28;20036;-75
2022/08/25 05:46:02;;;;;;;12.60;9.25;;;;;;;;;;5052662;28;20025;-75
2022/08/25 05:48:27;;;;;;;14.18;10.02;;;;;;;;;;5053066;28;20032;-76
2022/08/25 05:50:57;;;;;;;14.75;9.57;;;;;;;;;;5053020;28;20029;-75
2022/08/25 05:53:24;;;;;;;18.45;10.50;;;;;;;;;;5057001;28;20021;-75
2022/08/25 05:55:51;;;;;;;12.88;9.80;;;;;;;;;;5056734;28;20499;-76
2022/08/25 05:58:16;;;;;;;14.70;10.02;;;;;;;;;;5056738;28;20032;-75
2022/08/25 06:00:42;;;;;;;16.33;10.10;;;;;;;;;;5055391;28;20028;-75
2022/08/25 06:03:07;;;;;;;14.23;10.90;;;;;;;;;;5056564;28;20053;-75
2022/08/25 06:05:33;;;;;;;17.02;10.50;;;;;;;;;;5056300;28;20029;-75
2022/08/25 06:07:58;;;;;;;15.93;10.65;;;;;;;;;;5056476;28;20083;-75
2022/08/25 06:10:24;;;;;;;13.73;10.15;;;;;;;;;;5055100;28;20025;-75
2022/08/25 06:12:50;;;;;;;13.77;10.30;;;;;;;;;;5055332;28;20036;-76
2022/08/25 06:15:18;;;;;;;16.17;10.25;;;;;;;;;;5056108;28;20391;-75
2022/08/25 06:17:44;;;;;;;16.15;10.27;;;;;;;;;;5055471;28;20028;-75
2022/08/25 06:20:13;;;;;;;15.85;9.98;;;;;;;;;;5056182;28;20033;-75
2022/08/25 06:22:39;;;;;;;17.50;9.77;;;;;;;;;;5056151;28;20032;-75
2022/08/25 06:25:06;;;;;;;16.08;9.90;;;;;;;;;;5054749;28;20478;-76
2022/08/25 06:27:32;;;;;;;17.35;10.30;;;;;;;;;;5055988;28;20036;-75
2022/08/25 06:29:57;;;;;;;17.98;10.52;;;;;;;;;;5056220;28;20057;-75
2022/08/25 06:32:22;;;;;;;21.40;10.70;;;;;;;;;;5056106;28;20032;-75
2022/08/25 06:34:47;;;;;;;15.07;11.05;;;;;;;;;;5056016;28;20261;-76
2022/08/25 06:37:13;;;;;;;18.80;10.60;;;;;;;;;;5055986;28;20028;-76
2022/08/25 06:39:38;;;;;;;14.60;10.30;;;;;;;;;;5056008;28;20257;-76
2022/08/25 06:42:03;;;;;;;16.73;10.88;;;;;;;;;;5056035;28;20353;-76
2022/08/25 06:44:29;;;;;;;17.33;11.13;;;;;;;;;;5055824;28;20029;-75
2022/08/25 06:46:54;;;;;;;22.75;10.52;;;;;;;;;;5055385;28;20067;-75
2022/08/25 06:49:19;;;;;;;14.50;10.13;;;;;;;;;;5055881;28;20029;-76
2022/08/25 06:51:45;;;;;;;16.10;10.38;;;;;;;;;;5055565;28;20048;-76
2022/08/25 06:54:10;;;;;;;17.23;11.15;;;;;;;;;;5055402;28;20438;-74
2022/08/25 06:56:37;;;;;;;16.67;10.35;;;;;;;;;;5055500;28;20048;-76
2022/08/25 06:59:04;;;;;;;18.13;10.35;;;;;;;;;;5055693;28;20082;-76
2022/08/25 07:01:30;;;;;;;15.15;9.50;;;;;;;;;;5055565;28;20033;-73
2022/08/25 07:03:58;;;;;;;16.83;10.20;;;;;;;;;;5053905;28;20039;-76
2022/08/25 07:06:25;;;;;;;15.40;9.43;;;;;;;;;;5055839;28;20477;-75
2022/08/25 07:08:50;;;;;;;20.05;9.55;;;;;;;;;;5055144;28;20047;-76
2022/08/25 07:11:16;;;;;;;19.27;9.50;;;;;;;;;;5055182;28;20044;-76
2022/08/25 07:13:42;;;;;;;18.05;10.50;;;;;;;;;;5053769;28;20630;-76
2022/08/25 07:16:09;;;;;;;17.30;10.43;;;;;;;;;;5053919;28;20124;-76
2022/08/25 07:18:35;;;;;;;14.82;10.15;;;;;;;;;;5055306;28;20021;-76
2022/08/25 07:21:00;;;;;;;15.87;9.63;;;;;;;;;;5055048;28;20404;-75
2022/08/25 07:23:26;;;;;;;16.52;10.60;;;;;;;;;;5055075;28;20261;-75
2022/08/25 07:25:53;;;;;;;16.45;11.05;;;;;;;;;;5054852;28;20055;-74
2022/08/25 07:28:19;;;;;;;13.18;9.73;;;;;;;;;;5054819;28;20078;-76
2022/08/25 07:30:45;;;;;;;26.70;11.05;;;;;;;;;;5053530;28;20028;-76
2022/08/25 07:33:10;;;;;;;17.02;10.52;;;;;;;;;;5054838;28;20029;-75
2022/08/25 07:35:36;;;;;;;15.38;10.60;;;;;;;;;;5054744;28;20024;-75
2022/08/25 07:38:03;;;;;;;15.93;10.20;;;;;;;;;;5054791;28;20025;-77
2022/08/25 07:40:32;;;;;;;17.38;10.52;;;;;;;;;;5054974;28;20474;-75
2022/08/25 07:43:01;;;;;;;18.33;10.70;;;;;;;;;;5053323;28;20085;-75
2022/08/25 07:45:30;;;;;;;12.75;9.95;;;;;;;;;;5054565;28;20039;-75
2022/08/25 07:48:00;;;;;;;18.88;10.48;;;;;;;;;;5054765;28;20449;-75
2022/08/25 07:50:28;;;;;;;15.50;10.68;;;;;;;;;;5054792;28;20060;-76
2022/08/25 07:52:54;;;;;;;17.67;10.70;;;;;;;;;;5053161;28;20025;-75
2022/08/25 07:55:20;;;;;;;21.73;11.32;;;;;;;;;;5053050;28;20027;-75
2022/08/25 07:57:46;;;;;;;19.13;10.05;;;;;;;;;;5054614;28;20013;-76
2022/08/25 08:00:13;;;;;;;16.40;11.25;;;;;;;;;;5054541;28;20428;-76
2022/08/25 08:02:40;;;;;;;17.60;11.05;;;;;;;;;;5052973;28;20028;-76
2022/08/25 08:05:06;;;;;;;17.25;10.95;;;;;;;;;;5054121;28;20037;-76
2022/08/25 08:07:31;;;;;;;16.33;11.20;;;;;;;;;;5054058;28;20036;-75
2022/08/25 08:09:57;;;;;;;14.82;11.25;;;;;;;;;;5054367;28;20021;-76
2022/08/25 08:12:23;;;;;;;16.48;10.93;;;;;;;;;;5054122;28;20017;-75
2022/08/25 08:14:48;;;;;;;18.70;12.00;;;;;;;;;;5052340;28;20060;-75
2022/08/25 08:17:14;;;;;;;14.32;11.60;;;;;;;;;;5054014;28;20061;-76
2022/08/25 08:19:40;;;;;;;21.58;11.02;;;;;;;;;;5053877;28;20021;-76
2022/08/25 08:22:05;;;;;;;20.48;12.18;;;;;;;;;;5053969;28;20044;-76
2022/08/25 08:24:38;;;;;;;21.25;12.65;;;;;;;;;;5053880;28;20478;-74
2022/08/25 08:27:05;;;;;;;28.40;12.40;;;;;;;;;;5052434;28;20025;-76
2022/08/25 08:29:30;;;;;;;17.90;11.25;;;;;;;;;;5053752;28;20021;-74
2022/08/25 08:31:55;;;;;;;20.55;11.77;;;;;;;;;;5053755;28;20067;-76
2022/08/25 08:34:22;;;;;;;19.02;11.23;;;;;;;;;;5052422;28;20063;-76
2022/08/25 08:36:47;;;;;;;17.80;11.40;;;;;;;;;;5053636;28;20027;-76
2022/08/25 08:39:13;;;;;;;16.85;11.48;;;;;;;;;;5053987;28;20100;-76
2022/08/25 08:44:41;;;;;;;17.42;10.85;;;;;;;;;;5053688;28;20253;-76
2022/08/25 08:47:26;;;;;;;16.90;10.98;;;;;;;;;;5053368;28;20044;-76
2022/08/25 08:50:17;;;;;;;14.57;10.80;;;;;;;;;;5053693;28;20028;-75
2022/08/25 08:52:48;;;;;;;21.77;11.18;;;;;;;;;;5053057;28;20044;-76
2022/08/25 08:55:21;;;;;;;15.80;10.98;;;;;;;;;;5053206;28;20139;-75
2022/08/25 08:57:50;;;;;;;18.37;10.23;;;;;;;;;;5053648;28;20099;-75
2022/08/25 09:00:16;;;;;;;16.05;10.07;;;;;;;;;;5053324;28;20021;-76
2022/08/25 09:02:53;;;;;;;16.80;10.02;;;;;;;;;;5052093;28;20029;-76
2022/08/25 09:05:21;;;;;;;15.60;10.27;;;;;;;;;;5053181;28;20437;-76
2022/08/25 09:07:54;;;;;;;20.45;9.95;;;;;;;;;;5053097;28;20029;-75
2022/08/25 09:10:19;;;;;;;13.05;9.18;;;;;;;;;;5052858;28;20037;-76
2022/08/25 09:12:53;;;;;;;15.98;9.48;;;;;;;;;;5053270;28;20466;-76
2022/08/25 09:18:54;;;;;;;15.73;8.73;;;;;;;;;;5053259;28;20039;-75
2022/08/25 09:21:31;;;;;;;16.00;8.07;;;;;;;;;;5053230;28;20021;-77
2022/08/25 09:24:24;;;;;;;15.45;8.43;;;;;;;;;;5051628;28;20036;-75
2022/08/25 09:27:10;;;;;;;15.93;8.67;;;;;;;;;;5052335;28;20045;-76
2022/08/25 09:29:59;;;;;;;13.93;8.43;;;;;;;;;;5051789;28;20285;-76
2022/08/25 09:32:29;;;;;;;12.38;7.78;;;;;;;;;;5052922;28;20016;-75
2022/08/25 09:34:55;;;;;;;13.77;8.38;;;;;;;;;;5052686;28;20052;-75
2022/08/25 09:37:22;;;;;;;15.30;8.45;;;;;;;;;;5052700;28;20482;-75
2022/08/25 09:39:48;;;;;;;21.00;8.38;;;;;;;;;;5051407;28;20116;-75
2022/08/25 09:42:13;;;;;;;19.38;7.63;;;;;;;;;;5053235;28;20079;-75
2022/08/25 09:44:42;;;;;;;19.37;7.57;;;;;;;;;;5053252;28;20025;-77
2022/08/25 09:47:16;;;;;;;19.02;6.53;;;;;;;;;;5052391;28;20290;-76
2022/08/25 09:49:59;;;;;;;22.42;7.32;;;;;;;;;;5052888;28;20021;-76
2022/08/25 09:52:28;;;;;;;15.85;6.25;;;;;;;;;;5052577;28;20104;-76
2022/08/25 09:54:55;;;;;;;15.32;5.60;;;;;;;;;;5051135;28;20051;-77
2022/08/25 09:57:42;;;;;;;22.50;5.82;;;;;;;;;;5052542;28;20033;-76
2022/08/25 10:00:14;;;;;;;20.65;5.70;;;;;;;;;;5052240;28;20386;-75
2022/08/25 10:02:41;;;;;;;23.05;5.85;;;;;;;;;;5052480;28;20025;-75
2022/08/25 10:05:21;;;;;;;22.85;5.55;;;;;;;;;;5052373;28;20458;-76
2022/08/25 10:08:03;;;;;;;29.17;5.43;;;;;;;;;;5052671;28;20029;-75
2022/08/25 10:10:42;;;;;;;28.63;5.82;;;;;;;;;;5052758;28;20075;-73
2022/08/25 10:13:18;;;;;;;16.45;5.10;;;;;;;;;;5051253;28;20029;-75
2022/08/25 10:15:44;;;;;;;24.80;5.28;;;;;;;;;;5052272;28;20448;-76
2022/08/25 10:18:27;;;;;;;24.20;5.53;;;;;;;;;;5052379;28;20443;-75
2022/08/25 10:21:08;;;;;;;19.25;5.32;;;;;;;;;;5052808;28;20029;-76
2022/08/25 10:23:39;;;;;;;25.88;5.38;;;;;;;;;;5052713;28;20475;-75
2022/08/25 10:26:12;;;;;;;30.48;5.00;;;;;;;;;;5052211;28;20032;-75
2022/08/25 10:28:56;;;;;;;22.75;6.22;;;;;;;;;;5052581;28;20125;-75
2022/08/25 10:31:24;;;;;;;;;;;;;;;;;;5052876;28;20064;-75
2022/08/25 10:34:22;;;;;;;28.92;5.25;;;;;;;;;;5052020;28;20274;-74
2022/08/25 10:37:29;;;;;;;25.80;5.45;;;;;;;;;;5051271;28;20094;-74
2022/08/25 10:40:11;;;;;;;25.42;5.95;;;;;;;;;;5055880;28;20386;-75
2022/08/25 10:43:06;;;;;;;29.60;5.40;;;;;;;;;;5054493;28;20466;-75
2022/08/25 10:45:44;;;;;;;15.15;5.40;;;;;;;;;;5055730;28;20478;-75
2022/08/25 10:48:27;;;;;;;23.00;5.82;;;;;;;;;;5054370;28;20021;-75
2022/08/25 10:51:04;;;;;;;24.45;4.95;;;;;;;;;;5054407;28;20405;-75
2022/08/25 10:53:55;;;;;;;21.67;4.95;;;;;;;;;;5055866;28;20025;-74
2022/08/25 10:56:31;;;;;;;20.08;5.72;;;;;;;;;;5054183;28;20024;-75
2022/08/25 10:59:00;;;;;;;20.92;5.70;;;;;;;;;;5054222;28;20561;-75
2022/08/25 11:02:22;;;;;;;25.73;5.78;;;;;;;;;;5055418;28;20029;-75
2022/08/25 11:04:59;;;;;;;22.80;5.65;;;;;;;;;;5053232;28;20044;-76
2022/08/25 11:07:29;;;;;;;19.20;5.13;;;;;;;;;;5053221;28;20040;-73
2022/08/25 11:10:01;;;;;;;27.98;5.25;;;;;;;;;;5054917;28;20543;-77
2022/08/25 11:12:34;;;;;;;26.20;5.68;;;;;;;;;;5055658;28;20040;-76
2022/08/25 11:15:09;;;;;;;19.57;5.33;;;;;;;;;;5055483;28;20386;-76
2022/08/25 11:17:54;;;;;;;23.80;5.30;;;;;;;;;;5053937;28;20443;-76
2022/08/25 11:20:27;;;;;;;20.58;5.88;;;;;;;;;;5055332;28;20478;-76
2022/08/25 11:23:04;;;;;;;24.63;5.25;;;;;;;;;;5054015;28;20025;-77
2022/08/25 11:25:39;;;;;;;23.17;6.05;;;;;;;;;;5054952;28;20033;-75
2022/08/25 11:28:29;;;;;;;23.95;5.30;;;;;;;;;;5055264;28;20025;-75
2022/08/25 11:30:57;;;;;;;22.58;5.53;;;;;;;;;;5053768;28;20029;-76
2022/08/25 11:33:25;;;;;;;27.38;5.85;;;;;;;;;;5055336;28;20031;-76
2022/08/25 11:35:58;;;;;;;28.15;5.13;;;;;;;;;;5055046;28;20029;-76
2022/08/25 11:38:56;;;;;;;20.88;4.82;;;;;;;;;;5055042;28;20055;-75
2022/08/25 11:41:46;;;;;;;21.75;5.75;;;;;;;;;;5054829;28;20447;-76
2022/08/25 11:44:29;;;;;;;16.48;4.63;;;;;;;;;;5054892;28;20028;-76
2022/08/25 11:47:14;;;;;;;28.98;6.47;;;;;;;;;;5054747;28;20029;-76
2022/08/25 11:49:52;;;;;;;19.45;4.90;;;;;;;;;;5054191;28;20029;-75
2022/08/25 11:52:32;;;;;;;29.08;5.38;;;;;;;;;;5054651;28;20052;-76
2022/08/25 11:55:30;;;;;;;16.02;4.88;;;;;;;;;;5054393;28;20029;-75
2022/08/25 11:58:17;;;;;;;28.35;6.03;;;;;;;;;;5054811;28;20068;-76
2022/08/25 12:00:42;;;;;;;27.58;5.18;;;;;;;;;;5054302;28;20032;-76
2022/08/25 12:03:33;;;;;;;29.65;5.70;;;;;;;;;;5054461;28;20398;-76
2022/08/25 12:06:28;;;;;;;21.90;5.15;;;;;;;;;;5054040;28;20017;-76
2022/08/25 12:09:00;;;;;;;19.70;4.65;;;;;;;;;;5052869;28;20035;-75
2022/08/25 12:11:40;;;;;;;23.10;5.88;;;;;;;;;;5053310;28;20513;-76
2022/08/25 12:14:31;;;;;;;22.63;5.25;;;;;;;;;;5054045;28;20059;-76
2022/08/25 12:16:59;;;;;;;22.58;5.40;;;;;;;;;;5054186;28;20067;-76
2022/08/25 12:19:28;;;;;;;24.30;5.30;;;;;;;;;;5052715;28;20031;-76
2022/08/25 12:22:01;;;;;;;18.38;5.28;;;;;;;;;;5054178;28;20029;-76
2022/08/25 12:24:41;;;;;;;14.27;5.13;;;;;;;;;;5053977;28;20060;-76
2022/08/25 12:27:10;;;;;;;21.67;5.03;;;;;;;;;;5053885;28;20048;-76
2022/08/25 12:29:43;;;;;;;26.83;5.38;;;;;;;;;;5052624;28;20025;-77
2022/08/25 12:32:27;;;;;;;15.63;4.90;;;;;;;;;;5053645;28;20111;-76
2022/08/25 12:35:14;;;;;;;24.15;4.75;;;;;;;;;;5053687;28;20466;-76
2022/08/25 12:37:52;;;;;;;24.77;5.18;;;;;;;;;;5053641;28;20013;-76
2022/08/25 12:40:33;;;;;;;17.63;4.78;;;;;;;;;;5052386;28;20426;-76
2022/08/25 12:43:03;;;;;;;19.98;4.80;;;;;;;;;;5053816;28;20033;-77
2022/08/25 12:45:37;;;;;;;22.25;4.97;;;;;;;;;;5053548;28;20033;-77
2022/08/25 12:48:27;;;;;;;17.85;5.43;;;;;;;;;;5053633;28;20017;-75
2022/08/25 12:51:05;;;;;;;19.45;5.05;;;;;;;;;;5053645;28;20028;-76
2022/08/25 12:53:38;;;;;;;19.90;5.00;;;;;;;;;;5053813;28;20064;-76
2022/08/25 12:56:07;;;;;;;20.13;5.10;;;;;;;;;;5052127;28;20042;-76
2022/08/25 12:58:54;;;;;;;21.17;4.93;;;;;;;;;;5053477;28;20025;-74
2022/08/25 13:01:43;;;;;;;25.23;5.10;;;;;;;;;;5052340;28;20501;-76
2022/08/25 13:04:32;;;;;;;28.05;4.95;;;;;;;;;;5052486;28;20025;-75
2022/08/25 13:07:22;;;;;;;24.70;5.47;;;;;;;;;;5053255;28;20032;-75
2022/08/25 13:10:19;;;;;;;22.40;5.20;;;;;;;;;;5053044;28;20040;-75
2022/08/25 13:13:28;;;;;;;20.67;5.07;;;;;;;;;;5053411;28;20112;-76
2022/08/25 13:16:00;;;;;;;22.40;4.13;;;;;;;;;;5051647;28;20025;-76
2022/08/25 13:18:29;;;;;;;27.40;4.50;;;;;;;;;;5053234;28;20075;-75
2022/08/25 13:21:10;;;;;;;20.73;4.40;;;;;;;;;;5052983;28;20036;-75
2022/08/25 13:23:39;;;;;;;27.30;4.75;;;;;;;;;;5051618;28;20029;-75
2022/08/25 13:26:04;;;;;;;18.83;4.45;;;;;;;;;;5052788;28;20039;-75
2022/08/25 13:28:36;;;;;;;19.63;4.95;;;;;;;;;;5051559;28;20025;-74
2022/08/25 13:31:14;;;;;;;20.67;4.10;;;;;;;;;;5053126;28;20020;-76
2022/08/25 13:33:52;;;;;;;21.73;4.57;;;;;;;;;;5052772;28;20063;-76
2022/08/25 13:39:18;;;;;;;22.10;4.65;;;;;;;;;;5053329;28;20537;-75
2022/08/25 13:41:51;;;;;;;19.77;4.85;;;;;;;;;;5053131;28;20028;-76
2022/08/25 13:44:18;;;;;;;21.25;4.60;;;;;;;;;;5052708;28;20139;-76
2022/08/25 13:46:46;;;;;;;28.90;5.20;;;;;;;;;;5052714;28;20131;-75
2022/08/25 13:49:12;;;;;;;19.73;5.32;;;;;;;;;;5052581;28;20021;-76
2022/08/25 13:51:51;;;;;;;23.45;4.78;;;;;;;;;;5051533;28;20029;-76
2022/08/25 13:54:49;;;;;;;19.10;4.85;;;;;;;;;;5053100;28;20478;-76
2022/08/25 13:57:23;;;;;;;29.42;4.65;;;;;;;;;;5052389;28;20040;-75
2022/08/25 14:00:01;;;;;;;25.58;4.85;;;;;;;;;;5052500;28;20057;-76
2022/08/25 14:02:48;;;;;;;26.13;5.10;;;;;;;;;;5052519;28;20490;-76
2022/08/25 14:05:38;;;;;;;19.50;4.65;;;;;;;;;;5052304;28;20419;-76
2022/08/25 14:08:06;;;;;;;20.38;4.97;;;;;;;;;;5053052;28;20056;-76
2022/08/25 14:10:37;;;;;;;30.42;4.95;;;;;;;;;;5051268;28;20029;-73
2022/08/25 14:13:14;;;;;;;21.77;4.90;;;;;;;;;;5054437;28;20083;-77
2022/08/25 14:15:41;;;;;;;21.10;4.28;;;;;;;;;;5056383;28;20029;-77
2022/08/25 14:18:09;;;;;;;23.33;4.80;;;;;;;;;;5056409;28;20120;-76
2022/08/25 14:20:35;;;;;;;21.15;4.65;;;;;;;;;;5056298;28;20110;-74
2022/08/25 14:23:07;;;;;;;24.38;5.00;;;;;;;;;;5056294;28;20025;-75
2022/08/25 14:25:34;;;;;;;23.73;4.97;;;;;;;;;;5056207;28;20043;-74
2022/08/25 14:28:02;;;;;;;27.60;5.40;;;;;;;;;;5056016;28;20032;-75
2022/08/25 14:30:29;;;;;;;29.25;5.07;;;;;;;;;;5056400;28;20036;-74
2022/08/25 14:32:55;;;;;;;22.05;4.93;;;;;;;;;;5056016;28;20035;-76
2022/08/25 14:35:20;;;;;;;24.38;4.90;;;;;;;;;;5055938;28;20107;-75
2022/08/25 14:37:47;;;;;;;24.37;4.97;;;;;;;;;;5056090;28;20206;-75
2022/08/25 14:40:14;;;;;;;27.40;5.47;;;;;;;;;;5054618;28;20266;-76
2022/08/25 14:42:39;;;;;;;21.73;4.93;;;;;;;;;;5054573;28;20051;-76
2022/08/25 14:45:05;;;;;;;18.77;4.47;;;;;;;;;;5055830;28;20478;-75
2022/08/25 14:47:31;;;;;;;28.88;4.88;;;;;;;;;;5055634;28;20070;-75
2022/08/25 14:49:57;;;;;;;27.67;5.43;;;;;;;;;;5056024;28;20060;-76
2022/08/25 14:52:26;;;;;;;28.35;5.28;;;;;;;;;;5055770;28;20056;-76